sensor_id;sensor_type;location;lat;lon;timestamp;temperature;humidity
3308;DHT22;1666;48.898;9.182;2023-04-23T00:00:31;14.50;1.00
3308;DHT22;1666;48.898;9.182;2023-04-23T00:03:06;14.50;1.00
3308;DHT22;1666;48.898;9.182;2023-04-23T00:05:43;14.50;1.00
3308;DHT22;1666;48.898;9.182;2023-04-23T00:08:15;14.50;1.00
3308;DHT22;1666;48.898;9.182;2023-04-23T00:10:47;14.50;1.00
3308;DHT22;1666;48.898;9.182;2023-04-23T00:13:18;14.50;1.00
3308;DHT22;1666;48.898;9.182;2023-04-23T00:15:48;14.40;1.00
3308;DHT22;1666;48.898;9.182;2023-04-23T00:18:18;14.50;1.00
3308;DHT22;1666;48.898;9.182;2023-04-23T00:20:51;14.50;1.00
3308;DHT22;1666;48.898;9.182;2023-04-23T00:23:21;14.50;1.00
3308;DHT22;1666;48.898;9.182;2023-04-23T00:25:51;14.50;1.00
3308;DHT22;1666;48.898;9.182;2023-04-23T00:28:21;14.40;1.00
3308;DHT22;1666;48.898;9.182;2023-04-23T00:30:50;14.40;1.00
3308;DHT22;1666;48.898;9.182;2023-04-23T00:33:21;14.40;1.00
3308;DHT22;1666;48.898;9.182;2023-04-23T00:35:53;14.40;1.00
3308;DHT22;1666;48.898;9.182;2023-04-23T00:38:23;14.40;1.00
3308;DHT22;1666;48.898;9.182;2023-04-23T00:40:53;14.40;1.00
3308;DHT22;1666;48.898;9.182;2023-04-23T00:43:37;14.30;1.00
3308;DHT22;1666;48.898;9.182;2023-04-23T00:46:07;14.30;1.00
3308;DHT22;1666;48.898;9.182;2023-04-23T00:48:37;14.20;1.00
3308;DHT22;1666;48.898;9.182;2023-04-23T00:51:11;14.10;1.00
3308;DHT22;1666;48.898;9.182;2023-04-23T00:53:41;14.10;1.00
3308;DHT22;1666;48.898;9.182;2023-04-23T00:56:11;14.10;1.00
3308;DHT22;1666;48.898;9.182;2023-04-23T00:58:41;14.00;1.00
3308;DHT22;1666;48.898;9.182;2023-04-23T01:01:11;13.80;1.00
3308;DHT22;1666;48.898;9.182;2023-04-23T01:03:41;13.60;1.00
3308;DHT22;1666;48.898;9.182;2023-04-23T01:06:14;13.50;1.00
3308;DHT22;1666;48.898;9.182;2023-04-23T01:08:45;13.30;1.00
3308;DHT22;1666;48.898;9.182;2023-04-23T01:11:16;13.20;1.00
3308;DHT22;1666;48.898;9.182;2023-04-23T01:13:46;13.10;1.00
3308;DHT22;1666;48.898;9.182;2023-04-23T01:16:16;13.10;1.00
3308;DHT22;1666;48.898;9.182;2023-04-23T01:18:46;13.00;1.00
3308;DHT22;1666;48.898;9.182;2023-04-23T01:21:18;13.10;1.00
3308;DHT22;1666;48.898;9.182;2023-04-23T01:23:51;13.10;1.00
3308;DHT22;1666;48.898;9.182;2023-04-23T01:26:22;13.00;1.00
3308;DHT22;1666;48.898;9.182;2023-04-23T01:28:53;13.00;1.00
3308;DHT22;1666;48.898;9.182;2023-04-23T01:31:23;12.90;1.10
3308;DHT22;1666;48.898;9.182;2023-04-23T01:33:54;12.90;2.30
3308;DHT22;1666;48.898;9.182;2023-04-23T01:36:24;12.90;2.80
3308;DHT22;1666;48.898;9.182;2023-04-23T01:38:57;12.90;3.40
3308;DHT22;1666;48.898;9.182;2023-04-23T01:41:27;13.00;3.80
3308;DHT22;1666;48.898;9.182;2023-04-23T01:43:57;12.90;3.20
3308;DHT22;1666;48.898;9.182;2023-04-23T01:46:28;12.90;4.60
3308;DHT22;1666;48.898;9.182;2023-04-23T01:48:58;12.90;3.70
3308;DHT22;1666;48.898;9.182;2023-04-23T01:51:29;12.90;4.60
3308;DHT22;1666;48.898;9.182;2023-04-23T01:54:01;12.90;5.10
3308;DHT22;1666;48.898;9.182;2023-04-23T01:56:31;12.90;5.40
3308;DHT22;1666;48.898;9.182;2023-04-23T01:59:02;12.90;6.40
3308;DHT22;1666;48.898;9.182;2023-04-23T02:01:43;12.90;5.50
3308;DHT22;1666;48.898;9.182;2023-04-23T02:04:14;12.90;4.70
3308;DHT22;1666;48.898;9.182;2023-04-23T02:06:47;12.90;5.30
3308;DHT22;1666;48.898;9.182;2023-04-23T02:09:20;12.90;5.40
3308;DHT22;1666;48.898;9.182;2023-04-23T02:11:50;12.90;6.00
3308;DHT22;1666;48.898;9.182;2023-04-23T02:14:20;12.90;5.00
3308;DHT22;1666;48.898;9.182;2023-04-23T02:16:50;12.80;5.30
3308;DHT22;1666;48.898;9.182;2023-04-23T02:19:20;12.80;6.60
3308;DHT22;1666;48.898;9.182;2023-04-23T02:21:50;12.70;6.90
3308;DHT22;1666;48.898;9.182;2023-04-23T02:24:22;12.60;8.10
3308;DHT22;1666;48.898;9.182;2023-04-23T02:26:52;12.60;8.70
3308;DHT22;1666;48.898;9.182;2023-04-23T02:29:24;12.60;8.90
3308;DHT22;1666;48.898;9.182;2023-04-23T02:31:53;12.70;10.80
3308;DHT22;1666;48.898;9.182;2023-04-23T02:34:24;12.70;10.60
3308;DHT22;1666;48.898;9.182;2023-04-23T02:36:53;12.80;11.90
3308;DHT22;1666;48.898;9.182;2023-04-23T02:39:26;12.80;12.20
3308;DHT22;1666;48.898;9.182;2023-04-23T02:41:56;12.70;13.40
3308;DHT22;1666;48.898;9.182;2023-04-23T02:44:26;12.60;15.00
3308;DHT22;1666;48.898;9.182;2023-04-23T02:46:56;12.60;15.50
3308;DHT22;1666;48.898;9.182;2023-04-23T02:49:26;12.60;16.90
3308;DHT22;1666;48.898;9.182;2023-04-23T02:51:56;12.60;18.60
3308;DHT22;1666;48.898;9.182;2023-04-23T02:54:29;12.50;19.40
3308;DHT22;1666;48.898;9.182;2023-04-23T02:56:59;12.50;21.30
3308;DHT22;1666;48.898;9.182;2023-04-23T02:59:29;12.50;23.30
3308;DHT22;1666;48.898;9.182;2023-04-23T03:01:59;12.50;24.90
3308;DHT22;1666;48.898;9.182;2023-04-23T03:04:29;12.30;24.60
3308;DHT22;1666;48.898;9.182;2023-04-23T03:07:00;12.30;24.50
3308;DHT22;1666;48.898;9.182;2023-04-23T03:09:32;12.30;26.50
3308;DHT22;1666;48.898;9.182;2023-04-23T03:12:03;12.30;27.10
3308;DHT22;1666;48.898;9.182;2023-04-23T03:14:33;12.30;28.20
3308;DHT22;1666;48.898;9.182;2023-04-23T03:17:02;12.30;29.40
3308;DHT22;1666;48.898;9.182;2023-04-23T03:19:32;12.30;29.10
3308;DHT22;1666;48.898;9.182;2023-04-23T03:22:02;12.20;29.90
3308;DHT22;1666;48.898;9.182;2023-04-23T03:24:35;12.10;30.60
3308;DHT22;1666;48.898;9.182;2023-04-23T03:27:05;12.00;30.60
3308;DHT22;1666;48.898;9.182;2023-04-23T03:29:35;12.00;31.40
3308;DHT22;1666;48.898;9.182;2023-04-23T03:32:05;12.00;30.90
3308;DHT22;1666;48.898;9.182;2023-04-23T03:34:34;12.00;31.40
3308;DHT22;1666;48.898;9.182;2023-04-23T03:37:04;12.00;30.90
3308;DHT22;1666;48.898;9.182;2023-04-23T03:39:37;12.00;31.10
3308;DHT22;1666;48.898;9.182;2023-04-23T03:42:07;12.00;29.90
3308;DHT22;1666;48.898;9.182;2023-04-23T03:44:37;12.00;30.00
3308;DHT22;1666;48.898;9.182;2023-04-23T03:47:07;12.00;30.20
3308;DHT22;1666;48.898;9.182;2023-04-23T03:49:38;12.00;29.80
3308;DHT22;1666;48.898;9.182;2023-04-23T03:52:08;11.90;32.00
3308;DHT22;1666;48.898;9.182;2023-04-23T03:54:40;11.90;33.30
3308;DHT22;1666;48.898;9.182;2023-04-23T03:57:10;12.00;34.70
3308;DHT22;1666;48.898;9.182;2023-04-23T03:59:40;12.00;34.80
3308;DHT22;1666;48.898;9.182;2023-04-23T04:02:10;12.00;34.80
3308;DHT22;1666;48.898;9.182;2023-04-23T04:04:40;12.00;34.50
3308;DHT22;1666;48.898;9.182;2023-04-23T04:07:12;12.00;34.40
3308;DHT22;1666;48.898;9.182;2023-04-23T04:09:45;12.10;34.80
3308;DHT22;1666;48.898;9.182;2023-04-23T04:12:15;12.10;34.70
3308;DHT22;1666;48.898;9.182;2023-04-23T04:14:45;12.00;34.60
3308;DHT22;1666;48.898;9.182;2023-04-23T04:17:15;12.00;33.80
3308;DHT22;1666;48.898;9.182;2023-04-23T04:19:45;11.90;34.50
3308;DHT22;1666;48.898;9.182;2023-04-23T04:22:14;11.80;35.40
3308;DHT22;1666;48.898;9.182;2023-04-23T04:24:47;11.80;36.50
3308;DHT22;1666;48.898;9.182;2023-04-23T04:27:17;11.80;37.50
3308;DHT22;1666;48.898;9.182;2023-04-23T04:29:47;11.80;37.80
3308;DHT22;1666;48.898;9.182;2023-04-23T04:32:17;11.70;37.50
3308;DHT22;1666;48.898;9.182;2023-04-23T04:34:48;11.80;36.90
3308;DHT22;1666;48.898;9.182;2023-04-23T04:37:18;11.70;35.90
3308;DHT22;1666;48.898;9.182;2023-04-23T04:39:51;11.70;35.20
3308;DHT22;1666;48.898;9.182;2023-04-23T04:42:21;11.70;35.00
3308;DHT22;1666;48.898;9.182;2023-04-23T04:44:51;11.70;34.20
3308;DHT22;1666;48.898;9.182;2023-04-23T04:47:24;11.60;32.90
3308;DHT22;1666;48.898;9.182;2023-04-23T04:49:54;11.60;32.70
3308;DHT22;1666;48.898;9.182;2023-04-23T04:52:26;11.60;33.70
3308;DHT22;1666;48.898;9.182;2023-04-23T04:54:58;11.60;32.50
3308;DHT22;1666;48.898;9.182;2023-04-23T04:57:28;11.60;32.90
3308;DHT22;1666;48.898;9.182;2023-04-23T05:00:01;11.70;32.70
3308;DHT22;1666;48.898;9.182;2023-04-23T05:02:32;11.90;31.10
3308;DHT22;1666;48.898;9.182;2023-04-23T05:05:03;11.90;30.00
3308;DHT22;1666;48.898;9.182;2023-04-23T05:07:33;12.00;29.40
3308;DHT22;1666;48.898;9.182;2023-04-23T05:10:06;11.90;28.10
3308;DHT22;1666;48.898;9.182;2023-04-23T05:12:36;12.00;28.20
3308;DHT22;1666;48.898;9.182;2023-04-23T05:15:09;12.00;29.10
3308;DHT22;1666;48.898;9.182;2023-04-23T05:17:39;12.00;27.90
3308;DHT22;1666;48.898;9.182;2023-04-23T05:20:10;12.10;26.90
3308;DHT22;1666;48.898;9.182;2023-04-23T05:22:41;12.50;25.00
3308;DHT22;1666;48.898;9.182;2023-04-23T05:25:14;12.60;24.70
3308;DHT22;1666;48.898;9.182;2023-04-23T05:27:44;12.60;21.00
3308;DHT22;1666;48.898;9.182;2023-04-23T05:30:14;12.60;20.10
3308;DHT22;1666;48.898;9.182;2023-04-23T05:32:44;12.90;19.40
3308;DHT22;1666;48.898;9.182;2023-04-23T05:35:14;13.30;17.40
3308;DHT22;1666;48.898;9.182;2023-04-23T05:37:44;13.00;17.50
3308;DHT22;1666;48.898;9.182;2023-04-23T05:40:16;13.00;18.80
3308;DHT22;1666;48.898;9.182;2023-04-23T05:42:46;12.90;18.70
3308;DHT22;1666;48.898;9.182;2023-04-23T05:45:16;12.90;19.00
3308;DHT22;1666;48.898;9.182;2023-04-23T05:47:47;12.70;17.90
3308;DHT22;1666;48.898;9.182;2023-04-23T05:50:18;12.80;19.40
3308;DHT22;1666;48.898;9.182;2023-04-23T05:52:47;12.80;18.50
3308;DHT22;1666;48.898;9.182;2023-04-23T05:55:20;12.70;17.00
3308;DHT22;1666;48.898;9.182;2023-04-23T05:57:50;12.80;18.30
3308;DHT22;1666;48.898;9.182;2023-04-23T06:00:20;12.70;19.80
3308;DHT22;1666;48.898;9.182;2023-04-23T06:02:50;12.80;20.50
3308;DHT22;1666;48.898;9.182;2023-04-23T06:05:20;12.80;17.30
3308;DHT22;1666;48.898;9.182;2023-04-23T06:07:50;12.90;17.30
3308;DHT22;1666;48.898;9.182;2023-04-23T06:10:23;12.90;15.40
3308;DHT22;1666;48.898;9.182;2023-04-23T06:12:53;13.00;15.40
3308;DHT22;1666;48.898;9.182;2023-04-23T06:15:23;13.00;13.50
3308;DHT22;1666;48.898;9.182;2023-04-23T06:17:53;13.00;14.10
3308;DHT22;1666;48.898;9.182;2023-04-23T06:20:23;13.10;10.50
3308;DHT22;1666;48.898;9.182;2023-04-23T06:22:53;13.10;10.00
3308;DHT22;1666;48.898;9.182;2023-04-23T06:25:26;13.00;11.70
3308;DHT22;1666;48.898;9.182;2023-04-23T06:27:56;13.30;12.10
3308;DHT22;1666;48.898;9.182;2023-04-23T06:30:26;13.40;10.10
3308;DHT22;1666;48.898;9.182;2023-04-23T06:32:56;13.70;8.80
3308;DHT22;1666;48.898;9.182;2023-04-23T06:35:26;13.90;5.40
3308;DHT22;1666;48.898;9.182;2023-04-23T06:37:56;13.80;2.90
3308;DHT22;1666;48.898;9.182;2023-04-23T06:40:29;13.70;1.00
3308;DHT22;1666;48.898;9.182;2023-04-23T06:42:58;13.80;2.90
3308;DHT22;1666;48.898;9.182;2023-04-23T06:45:30;13.90;1.00
3308;DHT22;1666;48.898;9.182;2023-04-23T06:48:01;14.00;1.00
3308;DHT22;1666;48.898;9.182;2023-04-23T06:50:31;14.00;1.00
3308;DHT22;1666;48.898;9.182;2023-04-23T06:53:01;13.90;1.00
3308;DHT22;1666;48.898;9.182;2023-04-23T06:55:33;14.00;1.00
3308;DHT22;1666;48.898;9.182;2023-04-23T06:58:03;14.10;1.00
3308;DHT22;1666;48.898;9.182;2023-04-23T07:00:33;14.30;1.00
3308;DHT22;1666;48.898;9.182;2023-04-23T07:03:03;14.30;1.00
3308;DHT22;1666;48.898;9.182;2023-04-23T07:05:33;14.30;1.00
3308;DHT22;1666;48.898;9.182;2023-04-23T07:08:03;14.60;1.00
3308;DHT22;1666;48.898;9.182;2023-04-23T07:10:35;15.10;1.00
3308;DHT22;1666;48.898;9.182;2023-04-23T07:13:05;15.00;1.00
3308;DHT22;1666;48.898;9.182;2023-04-23T07:15:35;15.10;1.00
3308;DHT22;1666;48.898;9.182;2023-04-23T07:18:05;15.10;1.00
3308;DHT22;1666;48.898;9.182;2023-04-23T07:20:36;15.40;1.00
3308;DHT22;1666;48.898;9.182;2023-04-23T07:23:06;15.60;1.00
3308;DHT22;1666;48.898;9.182;2023-04-23T07:25:38;15.70;1.00
3308;DHT22;1666;48.898;9.182;2023-04-23T07:28:08;15.40;1.00
3308;DHT22;1666;48.898;9.182;2023-04-23T07:30:38;15.60;1.00
3308;DHT22;1666;48.898;9.182;2023-04-23T07:33:08;15.90;1.00
3308;DHT22;1666;48.898;9.182;2023-04-23T07:35:38;15.80;1.00
3308;DHT22;1666;48.898;9.182;2023-04-23T07:38:08;15.20;1.00
3308;DHT22;1666;48.898;9.182;2023-04-23T07:40:40;15.00;1.00
3308;DHT22;1666;48.898;9.182;2023-04-23T07:43:10;14.80;1.00
3308;DHT22;1666;48.898;9.182;2023-04-23T07:45:40;14.90;1.00
3308;DHT22;1666;48.898;9.182;2023-04-23T07:48:10;15.10;1.00
3308;DHT22;1666;48.898;9.182;2023-04-23T07:50:41;15.50;1.00
3308;DHT22;1666;48.898;9.182;2023-04-23T07:53:11;15.60;1.00
3308;DHT22;1666;48.898;9.182;2023-04-23T07:55:43;15.80;1.00
3308;DHT22;1666;48.898;9.182;2023-04-23T07:58:13;15.70;1.00
3308;DHT22;1666;48.898;9.182;2023-04-23T08:00:43;15.60;1.00
3308;DHT22;1666;48.898;9.182;2023-04-23T08:03:13;15.50;1.00
3308;DHT22;1666;48.898;9.182;2023-04-23T08:05:43;15.40;1.00
3308;DHT22;1666;48.898;9.182;2023-04-23T08:08:14;15.50;1.00
3308;DHT22;1666;48.898;9.182;2023-04-23T08:10:46;15.20;1.00
3308;DHT22;1666;48.898;9.182;2023-04-23T08:13:16;15.10;1.00
3308;DHT22;1666;48.898;9.182;2023-04-23T08:15:46;15.60;1.00
3308;DHT22;1666;48.898;9.182;2023-04-23T08:18:18;15.60;1.00
3308;DHT22;1666;48.898;9.182;2023-04-23T08:20:48;15.80;1.00
3308;DHT22;1666;48.898;9.182;2023-04-23T08:23:18;16.00;1.00
3308;DHT22;1666;48.898;9.182;2023-04-23T08:25:51;15.90;1.00
3308;DHT22;1666;48.898;9.182;2023-04-23T08:28:20;16.00;1.00
3308;DHT22;1666;48.898;9.182;2023-04-23T08:30:50;16.60;1.00
3308;DHT22;1666;48.898;9.182;2023-04-23T08:33:20;16.60;1.00
3308;DHT22;1666;48.898;9.182;2023-04-23T08:35:51;16.50;1.00
3308;DHT22;1666;48.898;9.182;2023-04-23T08:38:21;16.30;1.00
3308;DHT22;1666;48.898;9.182;2023-04-23T08:40:56;16.00;1.00
3308;DHT22;1666;48.898;9.182;2023-04-23T08:43:42;16.00;1.00
3308;DHT22;1666;48.898;9.182;2023-04-23T08:46:13;16.20;1.00
3308;DHT22;1666;48.898;9.182;2023-04-23T08:48:44;16.50;1.00
3308;DHT22;1666;48.898;9.182;2023-04-23T08:51:17;17.00;1.00
3308;DHT22;1666;48.898;9.182;2023-04-23T08:53:50;16.40;1.00
3308;DHT22;1666;48.898;9.182;2023-04-23T08:56:24;15.80;1.00
3308;DHT22;1666;48.898;9.182;2023-04-23T08:58:55;16.10;1.00
3308;DHT22;1666;48.898;9.182;2023-04-23T09:01:25;16.00;1.00
3308;DHT22;1666;48.898;9.182;2023-04-23T09:03:55;16.30;1.00
3308;DHT22;1666;48.898;9.182;2023-04-23T09:06:26;16.30;1.00
3308;DHT22;1666;48.898;9.182;2023-04-23T09:08:58;16.60;1.00
3308;DHT22;1666;48.898;9.182;2023-04-23T09:11:30;16.80;1.00
3308;DHT22;1666;48.898;9.182;2023-04-23T09:14:00;16.80;1.00
3308;DHT22;1666;48.898;9.182;2023-04-23T09:16:30;16.50;1.00
3308;DHT22;1666;48.898;9.182;2023-04-23T09:19:00;16.90;1.00
3308;DHT22;1666;48.898;9.182;2023-04-23T09:21:31;17.10;1.00
3308;DHT22;1666;48.898;9.182;2023-04-23T09:24:03;17.00;1.00
3308;DHT22;1666;48.898;9.182;2023-04-23T09:26:43;16.80;1.00
3308;DHT22;1666;48.898;9.182;2023-04-23T09:29:14;16.80;1.00
3308;DHT22;1666;48.898;9.182;2023-04-23T09:31:45;17.00;1.00
3308;DHT22;1666;48.898;9.182;2023-04-23T09:34:17;17.00;1.00
3308;DHT22;1666;48.898;9.182;2023-04-23T09:36:48;16.90;1.00
3308;DHT22;1666;48.898;9.182;2023-04-23T09:39:21;16.60;1.00
3308;DHT22;1666;48.898;9.182;2023-04-23T09:41:54;16.70;1.00
3308;DHT22;1666;48.898;9.182;2023-04-23T09:44:31;16.80;1.00
3308;DHT22;1666;48.898;9.182;2023-04-23T09:47:08;16.60;1.00
3308;DHT22;1666;48.898;9.182;2023-04-23T09:49:45;16.80;1.00
3308;DHT22;1666;48.898;9.182;2023-04-23T09:52:15;17.20;1.00
3308;DHT22;1666;48.898;9.182;2023-04-23T09:54:45;17.20;1.00
3308;DHT22;1666;48.898;9.182;2023-04-23T09:57:18;17.40;1.00
3308;DHT22;1666;48.898;9.182;2023-04-23T09:59:48;17.30;1.00
3308;DHT22;1666;48.898;9.182;2023-04-23T10:02:32;17.10;1.00
3308;DHT22;1666;48.898;9.182;2023-04-23T10:05:14;17.50;1.00
3308;DHT22;1666;48.898;9.182;2023-04-23T10:07:51;17.20;1.00
3308;DHT22;1666;48.898;9.182;2023-04-23T10:10:23;17.80;1.00
3308;DHT22;1666;48.898;9.182;2023-04-23T10:12:56;18.20;1.00
3308;DHT22;1666;48.898;9.182;2023-04-23T10:15:27;18.10;1.00
3308;DHT22;1666;48.898;9.182;2023-04-23T10:17:57;17.80;1.00
3308;DHT22;1666;48.898;9.182;2023-04-23T10:20:27;17.60;1.00
3308;DHT22;1666;48.898;9.182;2023-04-23T10:22:59;17.80;1.00
3308;DHT22;1666;48.898;9.182;2023-04-23T10:25:30;17.40;1.00
3308;DHT22;1666;48.898;9.182;2023-04-23T10:28:03;18.10;1.00
3308;DHT22;1666;48.898;9.182;2023-04-23T10:30:37;18.70;1.00
3308;DHT22;1666;48.898;9.182;2023-04-23T10:33:09;18.30;1.00
3308;DHT22;1666;48.898;9.182;2023-04-23T10:35:55;18.30;1.00
3308;DHT22;1666;48.898;9.182;2023-04-23T10:38:26;18.80;1.00
3308;DHT22;1666;48.898;9.182;2023-04-23T10:40:57;18.90;1.00
3308;DHT22;1666;48.898;9.182;2023-04-23T10:43:32;18.60;1.00
3308;DHT22;1666;48.898;9.182;2023-04-23T10:46:02;18.60;1.00
3308;DHT22;1666;48.898;9.182;2023-04-23T10:48:50;19.10;1.00
3308;DHT22;1666;48.898;9.182;2023-04-23T10:51:31;18.60;1.00
3308;DHT22;1666;48.898;9.182;2023-04-23T10:54:21;18.40;1.00
3308;DHT22;1666;48.898;9.182;2023-04-23T10:57:00;18.70;1.00
3308;DHT22;1666;48.898;9.182;2023-04-23T10:59:34;18.50;1.00
3308;DHT22;1666;48.898;9.182;2023-04-23T11:02:09;18.80;1.00
3308;DHT22;1666;48.898;9.182;2023-04-23T11:04:42;19.00;1.00
3308;DHT22;1666;48.898;9.182;2023-04-23T11:07:13;19.30;1.00
3308;DHT22;1666;48.898;9.182;2023-04-23T11:09:45;18.40;1.00
3308;DHT22;1666;48.898;9.182;2023-04-23T11:12:30;19.20;1.00
3308;DHT22;1666;48.898;9.182;2023-04-23T11:15:12;19.90;1.00
3308;DHT22;1666;48.898;9.182;2023-04-23T11:18:00;19.60;1.00
3308;DHT22;1666;48.898;9.182;2023-04-23T11:20:31;19.70;1.00
3308;DHT22;1666;48.898;9.182;2023-04-23T11:23:00;19.70;1.00
3308;DHT22;1666;48.898;9.182;2023-04-23T11:25:30;19.20;1.00
3308;DHT22;1666;48.898;9.182;2023-04-23T11:28:00;19.20;1.00
3308;DHT22;1666;48.898;9.182;2023-04-23T11:30:33;19.70;1.00
3308;DHT22;1666;48.898;9.182;2023-04-23T11:33:04;19.20;1.00
3308;DHT22;1666;48.898;9.182;2023-04-23T11:35:34;19.50;1.00
3308;DHT22;1666;48.898;9.182;2023-04-23T11:38:07;19.70;1.00
3308;DHT22;1666;48.898;9.182;2023-04-23T11:40:37;19.00;1.00
3308;DHT22;1666;48.898;9.182;2023-04-23T11:43:08;19.10;1.00
3308;DHT22;1666;48.898;9.182;2023-04-23T11:45:44;19.20;1.00
3308;DHT22;1666;48.898;9.182;2023-04-23T11:48:17;19.90;1.00
3308;DHT22;1666;48.898;9.182;2023-04-23T11:50:47;20.00;1.00
3308;DHT22;1666;48.898;9.182;2023-04-23T11:53:17;20.20;1.00
3308;DHT22;1666;48.898;9.182;2023-04-23T11:55:48;19.30;1.00
3308;DHT22;1666;48.898;9.182;2023-04-23T11:58:17;19.00;1.00
3308;DHT22;1666;48.898;9.182;2023-04-23T12:00:56;19.90;1.00
3308;DHT22;1666;48.898;9.182;2023-04-23T12:03:26;20.30;1.00
3308;DHT22;1666;48.898;9.182;2023-04-23T12:05:58;20.50;1.00
3308;DHT22;1666;48.898;9.182;2023-04-23T12:08:31;20.90;1.00
3308;DHT22;1666;48.898;9.182;2023-04-23T12:11:02;19.80;1.00
3308;DHT22;1666;48.898;9.182;2023-04-23T12:13:33;20.30;1.00
3308;DHT22;1666;48.898;9.182;2023-04-23T12:16:05;20.80;1.00
3308;DHT22;1666;48.898;9.182;2023-04-23T12:18:39;20.90;1.00
3308;DHT22;1666;48.898;9.182;2023-04-23T12:21:11;20.70;1.00
3308;DHT22;1666;48.898;9.182;2023-04-23T12:23:42;20.90;1.00
3308;DHT22;1666;48.898;9.182;2023-04-23T12:26:14;21.00;1.00
3308;DHT22;1666;48.898;9.182;2023-04-23T12:28:49;21.10;1.00
3308;DHT22;1666;48.898;9.182;2023-04-23T12:31:22;21.40;1.00
3308;DHT22;1666;48.898;9.182;2023-04-23T12:33:57;21.30;1.00
3308;DHT22;1666;48.898;9.182;2023-04-23T12:36:27;21.40;1.00
3308;DHT22;1666;48.898;9.182;2023-04-23T12:39:24;21.60;1.00
3308;DHT22;1666;48.898;9.182;2023-04-23T12:41:57;21.50;1.00
3308;DHT22;1666;48.898;9.182;2023-04-23T12:44:31;21.40;1.00
3308;DHT22;1666;48.898;9.182;2023-04-23T12:47:06;21.60;1.00
3308;DHT22;1666;48.898;9.182;2023-04-23T12:49:38;21.50;1.00
3308;DHT22;1666;48.898;9.182;2023-04-23T12:52:10;21.40;1.00
3308;DHT22;1666;48.898;9.182;2023-04-23T12:54:40;21.00;1.00
3308;DHT22;1666;48.898;9.182;2023-04-23T12:57:11;20.70;1.00
3308;DHT22;1666;48.898;9.182;2023-04-23T12:59:41;20.90;1.00
3308;DHT22;1666;48.898;9.182;2023-04-23T13:02:14;21.00;1.00
3308;DHT22;1666;48.898;9.182;2023-04-23T13:04:44;21.10;1.00
3308;DHT22;1666;48.898;9.182;2023-04-23T13:07:14;20.50;1.00
3308;DHT22;1666;48.898;9.182;2023-04-23T13:09:44;20.60;1.00
3308;DHT22;1666;48.898;9.182;2023-04-23T13:12:14;20.20;1.00
3308;DHT22;1666;48.898;9.182;2023-04-23T13:14:43;20.20;1.00
3308;DHT22;1666;48.898;9.182;2023-04-23T13:17:16;20.20;1.00
3308;DHT22;1666;48.898;9.182;2023-04-23T13:19:46;20.00;1.00
3308;DHT22;1666;48.898;9.182;2023-04-23T13:22:16;20.50;1.00
3308;DHT22;1666;48.898;9.182;2023-04-23T13:24:45;20.80;1.00
3308;DHT22;1666;48.898;9.182;2023-04-23T13:27:15;20.90;1.00
3308;DHT22;1666;48.898;9.182;2023-04-23T13:29:45;21.20;1.00
3308;DHT22;1666;48.898;9.182;2023-04-23T13:32:17;21.10;1.00
3308;DHT22;1666;48.898;9.182;2023-04-23T13:34:49;21.00;1.00
3308;DHT22;1666;48.898;9.182;2023-04-23T13:37:19;20.80;1.00
3308;DHT22;1666;48.898;9.182;2023-04-23T13:39:50;20.60;1.00
3308;DHT22;1666;48.898;9.182;2023-04-23T13:42:20;20.40;1.00
3308;DHT22;1666;48.898;9.182;2023-04-23T13:44:50;21.10;1.00
3308;DHT22;1666;48.898;9.182;2023-04-23T13:47:22;20.90;1.00
3308;DHT22;1666;48.898;9.182;2023-04-23T13:49:53;21.70;1.00
3308;DHT22;1666;48.898;9.182;2023-04-23T13:52:23;21.80;1.00
3308;DHT22;1666;48.898;9.182;2023-04-23T13:54:53;21.80;1.00
3308;DHT22;1666;48.898;9.182;2023-04-23T13:57:23;22.00;1.00
3308;DHT22;1666;48.898;9.182;2023-04-23T13:59:54;21.70;1.00
3308;DHT22;1666;48.898;9.182;2023-04-23T14:02:26;21.50;1.00
3308;DHT22;1666;48.898;9.182;2023-04-23T14:04:57;21.80;1.00
3308;DHT22;1666;48.898;9.182;2023-04-23T14:07:29;21.50;1.00
3308;DHT22;1666;48.898;9.182;2023-04-23T14:09:59;21.40;1.00
3308;DHT22;1666;48.898;9.182;2023-04-23T14:12:29;21.60;1.00
3308;DHT22;1666;48.898;9.182;2023-04-23T14:14:59;21.70;1.00
3308;DHT22;1666;48.898;9.182;2023-04-23T14:17:32;21.90;1.00
3308;DHT22;1666;48.898;9.182;2023-04-23T14:20:04;21.90;1.00
3308;DHT22;1666;48.898;9.182;2023-04-23T14:22:34;21.80;1.00
3308;DHT22;1666;48.898;9.182;2023-04-23T14:25:09;20.70;1.00
3308;DHT22;1666;48.898;9.182;2023-04-23T14:27:44;21.30;1.00
3308;DHT22;1666;48.898;9.182;2023-04-23T14:30:15;21.80;1.00
3308;DHT22;1666;48.898;9.182;2023-04-23T14:32:48;21.90;1.00
3308;DHT22;1666;48.898;9.182;2023-04-23T14:35:19;22.10;1.00
3308;DHT22;1666;48.898;9.182;2023-04-23T14:38:07;21.90;1.00
3308;DHT22;1666;48.898;9.182;2023-04-23T14:40:37;21.90;1.00
3308;DHT22;1666;48.898;9.182;2023-04-23T14:43:07;22.10;1.00
3308;DHT22;1666;48.898;9.182;2023-04-23T14:45:42;22.10;1.00
3308;DHT22;1666;48.898;9.182;2023-04-23T14:48:15;21.90;1.00
3308;DHT22;1666;48.898;9.182;2023-04-23T14:50:45;22.00;1.00
3308;DHT22;1666;48.898;9.182;2023-04-23T14:53:15;21.80;1.00
3308;DHT22;1666;48.898;9.182;2023-04-23T14:55:45;21.80;1.00
3308;DHT22;1666;48.898;9.182;2023-04-23T14:58:15;21.90;1.00
3308;DHT22;1666;48.898;9.182;2023-04-23T15:00:45;21.80;1.00
3308;DHT22;1666;48.898;9.182;2023-04-23T15:03:22;21.30;1.00
3308;DHT22;1666;48.898;9.182;2023-04-23T15:05:53;21.10;1.00
3308;DHT22;1666;48.898;9.182;2023-04-23T15:08:23;20.30;1.00
3308;DHT22;1666;48.898;9.182;2023-04-23T15:10:53;20.70;1.00
3308;DHT22;1666;48.898;9.182;2023-04-23T15:13:37;20.80;1.00
3308;DHT22;1666;48.898;9.182;2023-04-23T15:16:16;20.90;1.00
3308;DHT22;1666;48.898;9.182;2023-04-23T15:19:08;20.90;1.00
3308;DHT22;1666;48.898;9.182;2023-04-23T15:21:38;20.90;1.00
3308;DHT22;1666;48.898;9.182;2023-04-23T15:24:09;20.90;1.00
3308;DHT22;1666;48.898;9.182;2023-04-23T15:26:39;20.70;1.00
3308;DHT22;1666;48.898;9.182;2023-04-23T15:29:09;20.50;1.00
3308;DHT22;1666;48.898;9.182;2023-04-23T15:31:40;20.50;1.00
3308;DHT22;1666;48.898;9.182;2023-04-23T15:34:12;20.30;1.00
3308;DHT22;1666;48.898;9.182;2023-04-23T15:36:42;19.90;1.00
3308;DHT22;1666;48.898;9.182;2023-04-23T15:39:12;20.10;1.00
3308;DHT22;1666;48.898;9.182;2023-04-23T15:41:42;20.40;1.00
3308;DHT22;1666;48.898;9.182;2023-04-23T15:44:12;20.50;1.00
3308;DHT22;1666;48.898;9.182;2023-04-23T15:46:43;20.30;1.00
3308;DHT22;1666;48.898;9.182;2023-04-23T15:49:16;20.10;1.00
3308;DHT22;1666;48.898;9.182;2023-04-23T15:51:46;20.50;1.00
3308;DHT22;1666;48.898;9.182;2023-04-23T15:54:15;20.70;1.00
3308;DHT22;1666;48.898;9.182;2023-04-23T15:56:45;20.60;1.00
3308;DHT22;1666;48.898;9.182;2023-04-23T15:59:15;20.60;1.00
3308;DHT22;1666;48.898;9.182;2023-04-23T16:01:45;20.50;1.00
3308;DHT22;1666;48.898;9.182;2023-04-23T16:04:18;20.30;1.00
3308;DHT22;1666;48.898;9.182;2023-04-23T16:06:48;19.90;1.00
3308;DHT22;1666;48.898;9.182;2023-04-23T16:09:18;19.70;1.00
3308;DHT22;1666;48.898;9.182;2023-04-23T16:11:48;19.30;1.00
3308;DHT22;1666;48.898;9.182;2023-04-23T16:14:18;19.20;1.00
3308;DHT22;1666;48.898;9.182;2023-04-23T16:16:48;19.20;1.00
3308;DHT22;1666;48.898;9.182;2023-04-23T16:19:20;19.00;1.00
3308;DHT22;1666;48.898;9.182;2023-04-23T16:21:50;18.60;1.00
3308;DHT22;1666;48.898;9.182;2023-04-23T16:24:20;18.50;1.00
3308;DHT22;1666;48.898;9.182;2023-04-23T16:26:50;18.40;1.00
3308;DHT22;1666;48.898;9.182;2023-04-23T16:29:20;18.50;1.00
3308;DHT22;1666;48.898;9.182;2023-04-23T16:31:50;18.50;1.00
3308;DHT22;1666;48.898;9.182;2023-04-23T16:34:23;18.40;1.00
3308;DHT22;1666;48.898;9.182;2023-04-23T16:36:53;18.40;1.00
3308;DHT22;1666;48.898;9.182;2023-04-23T16:39:23;18.20;1.00
3308;DHT22;1666;48.898;9.182;2023-04-23T16:41:52;18.00;1.00